Time;durP1;ratioP1;P1;durP2;ratioP2;P2;SDS_P1;SDS_P2;PMS_P1;PMS_P2;Temp;Humidity;BMP_temperature;BMP_pressure;BME280_temperature;BME280_humidity;BME280_pressure;Samples;Min_cycle;Max_cycle;Signal;HPM_P1;HPM_P2
2022/12/31 00:00:59;;;;;;;16.43;10.97;;;;;;;6.74;90.21;95907.06;5073415;28;20965;-83
2022/12/31 00:03:26;;;;;;;11.40;9.97;;;;;;;6.69;90.25;95903.84;5073279;28;20451;-82
2022/12/31 00:05:54;;;;;;;19.67;12.13;;;;;;;6.67;90.60;95903.09;5073484;28;20473;-82
2022/12/31 00:08:21;;;;;;;14.47;10.63;;;;;;;6.65;91.74;95899.72;5073528;28;20445;-83
2022/12/31 00:10:48;;;;;;;12.97;9.83;;;;;;;6.66;91.46;95888.38;5073346;28;20531;-82
2022/12/31 00:13:15;;;;;;;15.13;10.60;;;;;;;6.70;91.89;95896.88;5073385;28;20499;-83
2022/12/31 00:15:43;;;;;;;14.90;10.87;;;;;;;6.76;92.06;95896.53;5073174;28;20453;-82
2022/12/31 00:18:10;;;;;;;15.50;11.00;;;;;;;6.76;91.65;95894.78;5073169;28;20450;-82
2022/12/31 00:20:40;;;;;;;14.70;10.20;;;;;;;6.76;92.25;95900.00;5073171;28;20447;-83
2022/12/31 00:23:09;;;;;;;19.23;11.50;;;;;;;6.69;92.25;95895.19;5073233;28;20532;-83
2022/12/31 00:25:36;;;;;;;20.70;11.27;;;;;;;6.68;92.17;95899.56;5073291;28;20468;-83
2022/12/31 00:28:04;;;;;;;17.27;13.70;;;;;;;6.72;91.78;95906.31;5054178;28;20439;-83
2022/12/31 00:30:31;;;;;;;28.47;15.90;;;;;;;6.58;92.35;95910.53;5072784;28;20485;-82
2022/12/31 00:32:57;;;;;;;28.60;18.40;;;;;;;6.62;91.89;95914.69;5073181;28;20530;-83
2022/12/31 00:35:25;;;;;;;39.43;23.77;;;;;;;6.42;92.09;95913.97;5054198;28;20441;-82
2022/12/31 00:37:52;;;;;;;40.67;27.63;;;;;;;6.37;92.29;95921.19;5073205;28;20440;-83
2022/12/31 00:40:21;;;;;;;49.23;31.13;;;;;;;6.24;91.26;95927.09;5054008;28;20445;-82
2022/12/31 00:42:47;;;;;;;44.17;28.37;;;;;;;6.10;92.02;95917.41;5037667;28;20851;-82
2022/12/31 00:45:14;;;;;;;40.50;27.30;;;;;;;6.04;92.44;95928.94;5072738;28;20466;-82
2022/12/31 00:47:41;;;;;;;35.40;24.77;;;;;;;5.87;92.66;95940.19;5072651;28;20437;-82
2022/12/31 00:50:08;;;;;;;43.33;26.50;;;;;;;6.09;93.00;95939.16;5072674;28;20895;-83
2022/12/31 00:52:35;;;;;;;39.23;26.37;;;;;;;6.16;93.23;95928.34;5072872;28;20487;-83
2022/12/31 00:55:02;;;;;;;56.03;27.20;;;;;;;6.24;92.27;95935.75;5072825;28;20560;-82
2022/12/31 00:57:30;;;;;;;38.00;25.63;;;;;;;6.25;91.45;95934.00;5072452;28;20438;-82
2022/12/31 00:59:56;;;;;;;39.93;25.20;;;;;;;6.27;92.54;95930.38;5072229;28;20908;-83
2022/12/31 01:02:23;;;;;;;41.87;29.00;;;;;;;6.19;92.00;95933.41;5072565;28;20457;-83
2022/12/31 01:04:50;;;;;;;44.07;28.27;;;;;;;6.25;92.34;95950.47;5072774;28;20450;-82
2022/12/31 01:07:17;;;;;;;50.93;31.20;;;;;;;6.18;92.08;95955.16;5072866;28;20446;-82
2022/12/31 01:09:43;;;;;;;49.93;35.27;;;;;;;6.14;92.72;95961.47;5072470;28;20997;-83
2022/12/31 01:12:11;;;;;;;49.50;33.30;;;;;;;6.02;93.03;95956.84;5072149;28;20499;-82
2022/12/31 01:14:39;;;;;;;47.90;29.70;;;;;;;5.78;92.79;95964.09;5072570;28;20453;-83
2022/12/31 01:17:06;;;;;;;42.33;26.03;;;;;;;5.88;93.87;95967.09;5037175;28;20445;-82
2022/12/31 01:19:32;;;;;;;47.90;28.70;;;;;;;6.00;92.75;95963.06;5072296;28;20492;-82
2022/12/31 01:21:59;;;;;;;45.87;27.77;;;;;;;6.00;92.11;95963.88;5072276;28;20445;-82
2022/12/31 01:24:26;;;;;;;42.53;27.40;;;;;;;6.02;92.61;95956.00;5072600;28;20484;-82
2022/12/31 01:26:56;;;;;;;39.30;27.47;;;;;;;6.10;92.94;95959.09;5072018;28;20860;-82
2022/12/31 01:29:23;;;;;;;41.30;24.83;;;;;;;6.14;93.11;95961.47;5072339;28;20450;-82
2022/12/31 01:31:51;;;;;;;38.50;24.83;;;;;;;6.21;93.23;95962.81;5072410;28;20559;-82
2022/12/31 01:34:18;;;;;;;40.67;26.33;;;;;;;6.30;92.27;95956.28;5072321;28;20517;-82
2022/12/31 01:36:44;;;;;;;37.43;23.63;;;;;;;6.34;91.77;95947.41;5072357;28;20457;-82
2022/12/31 01:39:11;;;;;;;39.17;24.83;;;;;;;6.39;91.31;95955.00;5053478;28;20555;-83
2022/12/31 01:41:40;;;;;;;45.10;27.73;;;;;;;6.44;91.02;95956.44;5072271;28;20449;-83
2022/12/31 01:44:40;;;;;;;40.83;26.73;;;;;;;6.46;90.96;95964.19;5072147;28;20493;-82
2022/12/31 01:47:14;;;;;;;41.07;25.63;;;;;;;6.50;90.72;95973.53;5053383;28;20447;-82
2022/12/31 01:49:44;;;;;;;42.97;26.90;;;;;;;6.55;90.43;95971.53;5072267;28;20554;-83
2022/12/31 01:52:15;;;;;;;54.63;31.97;;;;;;;6.60;90.72;95964.31;5072053;28;20485;-82
2022/12/31 01:54:46;;;;;;;53.43;29.73;;;;;;;6.63;90.07;95969.34;5005034;28;20485;-82
2022/12/31 01:57:14;;;;;;;49.67;29.87;;;;;;;6.67;90.61;95960.47;5071930;28;20446;-82
2022/12/31 01:59:42;;;;;;;41.23;27.10;;;;;;;6.70;90.38;95962.91;5072076;28;20450;-82
2022/12/31 02:02:10;;;;;;;41.03;26.00;;;;;;;6.71;90.03;95962.00;5071959;28;20864;-82
2022/12/31 02:04:37;;;;;;;35.00;23.50;;;;;;;6.67;89.85;95964.84;5072014;28;20503;-82
2022/12/31 02:07:06;;;;;;;37.10;23.20;;;;;;;6.62;89.81;95965.06;5036673;28;20847;-82
2022/12/31 02:09:35;;;;;;;30.67;20.37;;;;;;;6.63;89.38;95964.13;5071961;28;20537;-82
2022/12/31 02:12:02;;;;;;;29.63;19.80;;;;;;;6.62;89.99;95965.06;5073039;28;20527;-82
2022/12/31 02:14:33;;;;;;;28.60;19.40;;;;;;;6.60;89.99;95964.31;5075579;28;20439;-82
2022/12/31 02:17:10;;;;;;;24.33;15.83;;;;;;;6.60;89.77;95964.31;5075896;28;20541;-83
2022/12/31 02:20:18;;;;;;;19.83;14.10;;;;;;;6.62;89.97;95965.06;5075690;28;20450;-83
2022/12/31 02:23:06;;;;;;;21.73;15.00;;;;;;;6.63;90.72;95974.56;5033728;28;20459;-83
2022/12/31 02:25:50;;;;;;;19.30;14.40;;;;;;;6.58;91.23;95973.97;5033925;28;21046;-82
2022/12/31 02:28:32;;;;;;;15.20;12.03;;;;;;;6.58;91.64;95970.53;5034615;28;21014;-83
2022/12/31 02:31:06;;;;;;;18.33;12.00;;;;;;;6.57;92.13;95979.28;5033962;28;20487;-82
2022/12/31 02:33:38;;;;;;;14.87;11.70;;;;;;;6.56;92.17;95972.38;5033280;28;20445;-83
2022/12/31 02:36:13;;;;;;;18.00;12.87;;;;;;;6.56;92.07;95982.81;5000072;28;20492;-83
2022/12/31 02:38:47;;;;;;;20.80;13.97;;;;;;;6.55;92.82;95981.97;5032870;28;20493;-82
2022/12/31 02:41:48;;;;;;;17.17;12.03;;;;;;;6.60;92.99;95981.72;5032734;28;20470;-82
2022/12/31 02:44:03;;;;;;;16.13;12.03;;;;;;;6.59;92.23;95980.88;5032207;28;20475;-82
2022/12/31 02:46:41;;;;;;;25.93;13.60;;;;;;;6.62;93.10;95982.47;5033023;28;20506;-82
2022/12/31 02:49:16;;;;;;;17.37;12.70;;;;;;;6.67;92.83;95989.16;5032620;28;20530;-82
2022/12/31 02:51:50;;;;;;;22.13;12.70;;;;;;;6.69;93.10;95989.94;5032984;28;20513;-83
2022/12/31 02:54:28;;;;;;;20.20;13.50;;;;;;;6.68;92.69;95987.41;5032534;28;20450;-83
2022/12/31 02:57:05;;;;;;;20.80;13.57;;;;;;;6.70;92.92;95985.56;5032483;28;20447;-83
2022/12/31 03:02:29;;;;;;;19.77;12.30;;;;;;;6.75;93.40;95993.97;5074726;28;20434;-83
2022/12/31 03:04:57;;;;;;;18.60;11.10;;;;;;;6.76;92.89;95991.28;5055856;28;20986;-83
2022/12/31 03:07:26;;;;;;;15.33;11.83;;;;;;;6.81;93.04;95989.28;5074869;28;20846;-82
2022/12/31 03:09:53;;;;;;;17.90;12.17;;;;;;;6.80;92.23;95978.91;5074827;28;20507;-83
2022/12/31 03:15:18;;;;;;;17.10;12.07;;;;;;;6.80;91.65;95984.97;5074373;28;20426;-82
2022/12/31 03:17:48;;;;;;;18.47;11.27;;;;;;;6.79;91.82;95980.69;5074618;28;20464;-82
2022/12/31 03:22:59;;;;;;;18.47;11.37;;;;;;;6.76;91.85;95980.00;5074134;28;20429;-82
2022/12/31 03:25:33;;;;;;;17.30;12.43;;;;;;;6.79;92.21;95983.31;5038494;28;20500;-82
2022/12/31 03:28:02;;;;;;;14.77;10.87;;;;;;;6.81;92.22;95975.38;5074637;28;20450;-83
2022/12/31 03:30:29;;;;;;;15.90;10.70;;;;;;;6.83;92.02;95974.38;5074224;28;20503;-82
2022/12/31 03:32:58;;;;;;;14.40;9.93;;;;;;;6.89;91.37;95982.81;5074243;28;20445;-82
2022/12/31 03:35:27;;;;;;;16.97;11.20;;;;;;;6.91;91.04;95980.94;5073993;28;20446;-83
2022/12/31 03:37:55;;;;;;;18.33;11.43;;;;;;;6.78;90.40;95981.63;5073994;28;20874;-82
2022/12/31 03:40:23;;;;;;;14.90;11.07;;;;;;;6.75;90.36;95988.75;5039156;28;20443;-82
2022/12/31 03:42:50;;;;;;;14.17;11.77;;;;;;;6.73;91.13;95973.19;5074168;28;20480;-83
2022/12/31 03:45:17;;;;;;;13.97;12.40;;;;;;;6.74;90.95;95984.47;5073858;28;20531;-82
2022/12/31 03:47:44;;;;;;;15.33;10.50;;;;;;;6.67;90.82;95980.50;5073785;28;20493;-82
2022/12/31 03:50:14;;;;;;;16.80;11.00;;;;;;;6.65;90.11;95983.19;5073694;28;20454;-82
2022/12/31 03:52:41;;;;;;;16.97;10.33;;;;;;;6.61;90.87;95979.03;5073530;28;20484;-82
2022/12/31 03:55:08;;;;;;;16.17;9.80;;;;;;;6.60;90.49;95979.09;5073636;28;20515;-83
2022/12/31 03:57:35;;;;;;;13.70;11.03;;;;;;;6.62;91.19;95980.72;5073608;28;20458;-82
2022/12/31 04:00:02;;;;;;;16.97;11.00;;;;;;;6.59;90.37;95983.47;5054956;28;20849;-82
2022/12/31 04:02:29;;;;;;;16.30;11.83;;;;;;;6.58;91.27;95992.22;5073607;28;20473;-82
2022/12/31 04:04:56;;;;;;;18.20;11.50;;;;;;;6.60;91.23;95985.16;5073234;28;20450;-82
2022/12/31 04:07:24;;;;;;;13.27;9.57;;;;;;;6.61;91.21;95988.63;5073325;28;20508;-83
2022/12/31 04:09:51;;;;;;;14.03;11.10;;;;;;;6.62;91.22;95993.75;5073388;28;20467;-82
2022/12/31 04:12:18;;;;;;;15.70;11.30;;;;;;;6.60;91.81;95994.75;5073491;28;20951;-83
2022/12/31 04:14:44;;;;;;;18.57;11.67;;;;;;;6.57;91.93;95989.69;5073381;28;20492;-82
2022/12/31 04:17:11;;;;;;;17.30;10.93;;;;;;;6.52;92.03;95988.19;5073141;28;20824;-82
2022/12/31 04:19:38;;;;;;;16.17;10.93;;;;;;;6.53;92.06;95994.22;5073025;28;20511;-82
2022/12/31 04:22:05;;;;;;;19.50;12.53;;;;;;;6.50;91.87;95987.41;5073267;28;20449;-82
2022/12/31 04:24:33;;;;;;;29.60;18.27;;;;;;;6.42;90.62;96004.38;5073433;28;20447;-83
2022/12/31 04:27:00;;;;;;;33.07;20.47;;;;;;;5.92;91.89;96005.13;5072940;28;20508;-82
2022/12/31 04:29:27;;;;;;;27.80;19.00;;;;;;;5.98;91.34;96012.63;5073349;28;20468;-82
2022/12/31 04:31:54;;;;;;;31.27;19.73;;;;;;;5.96;90.85;96006.66;5072913;28;20478;-82
2022/12/31 04:34:21;;;;;;;30.50;19.20;;;;;;;5.93;89.90;96016.38;5037704;28;20450;-82
2022/12/31 04:36:48;;;;;;;32.17;20.23;;;;;;;5.82;90.41;96006.47;5072740;28;20935;-83
2022/12/31 04:39:15;;;;;;;33.50;22.73;;;;;;;5.81;91.29;96004.78;5073038;28;20450;-83
2022/12/31 04:41:43;;;;;;;34.07;22.30;;;;;;;5.82;91.37;96022.09;5073005;28;20449;-82
2022/12/31 04:44:10;;;;;;;40.80;30.43;;;;;;;5.61;92.24;96026.53;5072538;28;20546;-83
2022/12/31 04:46:36;;;;;;;55.13;34.63;;;;;;;5.57;92.16;96023.25;5037656;28;20940;-82
2022/12/31 04:49:03;;;;;;;50.40;31.37;;;;;;;5.47;92.34;96028.94;5072833;28;20506;-82
2022/12/31 04:51:31;;;;;;;33.50;24.93;;;;;;;5.40;92.92;96036.19;5072599;28;20489;-82
2022/12/31 04:53:58;;;;;;;35.47;22.53;;;;;;;5.10;95.33;96038.44;5073018;28;20474;-82
2022/12/31 04:56:26;;;;;;;56.13;38.90;;;;;;;5.16;93.98;96040.75;5072414;28;20444;-83
2022/12/31 04:58:55;;;;;;;65.33;41.40;;;;;;;4.81;95.73;96046.66;5072740;28;20491;-82
2022/12/31 05:01:22;;;;;;;45.03;28.63;;;;;;;4.81;96.14;96044.06;5072426;28;20498;-82
2022/12/31 05:03:49;;;;;;;49.17;27.50;;;;;;;4.89;95.60;96055.81;5037215;28;20449;-83
2022/12/31 05:06:18;;;;;;;40.57;26.80;;;;;;;4.93;96.22;96060.00;5072367;28;20514;-82
2022/12/31 05:08:46;;;;;;;41.60;26.27;;;;;;;4.98;94.63;96060.63;5073358;28;20527;-83
2022/12/31 05:11:13;;;;;;;42.23;27.43;;;;;;;5.05;94.05;96061.22;5072369;28;20991;-83
2022/12/31 05:13:40;;;;;;;42.40;26.50;;;;;;;5.10;94.62;96068.81;5072494;28;20446;-82
2022/12/31 05:16:08;;;;;;;42.87;27.10;;;;;;;5.19;94.32;96068.38;5072315;28;20450;-83
2022/12/31 05:18:36;;;;;;;43.63;26.17;;;;;;;5.22;93.43;96068.28;5072627;28;20448;-83
2022/12/31 05:21:03;;;;;;;39.10;24.97;;;;;;;5.28;92.61;96070.59;5072337;28;20444;-83
2022/12/31 05:23:30;;;;;;;38.10;23.57;;;;;;;5.34;91.97;96078.13;5072329;28;20449;-83
2022/12/31 05:25:58;;;;;;;38.20;23.10;;;;;;;5.37;91.59;96083.19;5072119;28;20437;-82
2022/12/31 05:28:25;;;;;;;39.67;22.50;;;;;;;5.39;92.41;96081.34;5072182;28;20531;-83
2022/12/31 05:30:52;;;;;;;44.80;23.37;;;;;;;5.41;92.22;96089.09;5072091;28;20932;-82
2022/12/31 05:33:21;;;;;;;38.37;27.20;;;;;;;5.39;91.69;96090.91;5072083;28;20485;-83
2022/12/31 05:35:48;;;;;;;56.40;26.90;;;;;;;5.34;91.80;96091.13;5037364;28;20485;-83
2022/12/31 05:38:15;;;;;;;50.20;28.07;;;;;;;5.32;92.08;96100.75;5072202;28;20445;-82
2022/12/31 05:40:42;;;;;;;44.73;25.80;;;;;;;5.32;92.17;96092.97;5072294;28;20441;-82
2022/12/31 05:43:09;;;;;;;37.80;26.63;;;;;;;5.31;92.11;96088.66;5036631;28;20460;-82
2022/12/31 05:45:36;;;;;;;45.37;27.83;;;;;;;5.29;92.20;96096.53;5037029;28;20874;-83
2022/12/31 05:48:02;;;;;;;95.83;48.87;;;;;;;5.28;91.56;96094.84;5074771;28;20958;-82
2022/12/31 05:50:30;;;;;;;102.67;49.20;;;;;;;5.30;91.88;96092.19;5076136;28;20502;-82
2022/12/31 05:52:57;;;;;;;108.67;51.50;;;;;;;5.32;92.43;96085.16;5076038;28;21099;-83
2022/12/31 05:55:24;;;;;;;80.43;38.63;;;;;;;5.35;92.05;96089.38;5076279;28;20840;-82
2022/12/31 05:57:51;;;;;;;45.23;29.70;;;;;;;5.37;92.70;96093.59;5075901;28;20992;-83
2022/12/31 06:00:18;;;;;;;40.07;26.57;;;;;;;5.37;93.13;96093.59;5075702;28;20490;-82
2022/12/31 06:02:44;;;;;;;32.97;23.20;;;;;;;5.39;92.17;96090.91;5075789;28;20486;-82
2022/12/31 06:05:11;;;;;;;28.80;19.60;;;;;;;5.34;92.82;96096.34;5075890;28;20445;-83
2022/12/31 06:07:39;;;;;;;22.07;16.13;;;;;;;5.30;92.39;96102.59;5075982;28;20437;-82
2022/12/31 06:10:07;;;;;;;23.83;14.43;;;;;;;5.23;92.85;96094.22;5075741;28;20445;-82
2022/12/31 06:12:34;;;;;;;24.53;13.27;;;;;;;5.25;93.06;96092.41;5039999;28;20484;-82
2022/12/31 06:15:01;;;;;;;27.27;15.63;;;;;;;5.27;93.01;96092.31;5078835;28;20493;-83
2022/12/31 06:17:28;;;;;;;31.90;18.30;;;;;;;5.30;93.65;96086.97;5075435;28;20940;-83
2022/12/31 06:19:55;;;;;;;50.17;26.60;;;;;;;5.37;93.55;96093.59;5073624;28;20821;-83
2022/12/31 06:22:22;;;;;;;35.10;22.83;;;;;;;5.44;93.30;96100.19;5075358;28;20437;-83
2022/12/31 06:24:50;;;;;;;46.20;22.50;;;;;;;5.51;93.35;96101.63;5075584;28;20450;-83
2022/12/31 06:27:17;;;;;;;39.43;19.30;;;;;;;5.55;93.69;96103.19;5078928;28;20436;-82
2022/12/31 06:29:44;;;;;;;25.23;16.20;;;;;;;5.60;94.06;96110.78;5075164;28;20456;-83
2022/12/31 06:32:11;;;;;;;20.30;14.97;;;;;;;5.68;93.52;96119.06;5075526;28;20494;-82
2022/12/31 06:34:38;;;;;;;16.57;11.60;;;;;;;5.67;93.22;96117.38;5075215;28;20441;-83
2022/12/31 06:37:04;;;;;;;18.93;12.03;;;;;;;5.77;93.50;96113.44;5075240;28;20445;-83
2022/12/31 06:39:31;;;;;;;22.80;14.73;;;;;;;5.77;93.31;96113.44;5075389;28;20437;-83
2022/12/31 06:41:59;;;;;;;28.67;14.37;;;;;;;5.83;93.38;96120.97;5075486;28;20517;-83
2022/12/31 06:44:26;;;;;;;18.60;12.40;;;;;;;5.76;94.04;96121.31;5074938;28;20545;-82
2022/12/31 06:46:53;;;;;;;23.33;14.80;;;;;;;5.77;94.25;96134.25;5075121;28;20441;-83
2022/12/31 06:49:20;;;;;;;21.43;15.67;;;;;;;5.70;94.55;96143.28;5040013;28;20452;-83
2022/12/31 06:51:47;;;;;;;24.53;14.20;;;;;;;5.77;94.28;96129.06;5074965;28;21056;-82
2022/12/31 06:54:14;;;;;;;24.67;14.87;;;;;;;5.89;94.39;96144.16;5074892;28;20446;-83
2022/12/31 06:56:41;;;;;;;24.90;14.33;;;;;;;5.94;93.83;96153.53;5074762;28;20495;-82
2022/12/31 06:59:27;;;;;;;21.00;14.23;;;;;;;6.04;94.67;96153.00;5054670;28;20492;-83
2022/12/31 07:02:10;;;;;;;14.17;12.10;;;;;;;6.10;94.40;96152.75;5074889;28;20831;-82
2022/12/31 07:05:17;;;;;;;25.90;14.07;;;;;;;6.15;94.57;96161.19;5074792;28;20441;-82
2022/12/31 07:07:58;;;;;;;16.60;12.57;;;;;;;6.27;93.40;96154.53;5012769;28;20483;-83
2022/12/31 07:10:36;;;;;;;23.00;14.97;;;;;;;6.35;94.13;96157.63;5012667;28;20444;-82
2022/12/31 07:13:22;;;;;;;20.00;15.53;;;;;;;6.42;93.51;96158.19;5012654;28;20488;-83
2022/12/31 07:16:02;;;;;;;62.87;36.73;;;;;;;6.45;93.52;96166.72;5012567;28;20536;-82
2022/12/31 07:18:37;;;;;;;124.97;71.40;;;;;;;6.48;92.94;96163.94;5012458;28;20490;-82
2022/12/31 07:21:07;;;;;;;47.17;30.80;;;;;;;6.50;92.78;96167.31;5012613;28;20532;-82
2022/12/31 07:23:35;;;;;;;33.10;20.90;;;;;;;6.54;93.14;96173.22;5012280;28;20859;-83
2022/12/31 07:26:07;;;;;;;26.73;18.27;;;;;;;6.64;92.83;96164.03;4979929;28;20875;-82
2022/12/31 07:28:49;;;;;;;27.63;16.37;;;;;;;6.79;92.99;96172.88;5012596;28;20450;-82
2022/12/31 07:31:28;;;;;;;22.17;14.97;;;;;;;6.95;92.89;96175.59;5011916;28;20870;-83
2022/12/31 07:34:00;;;;;;;20.17;14.90;;;;;;;7.13;92.55;96177.25;5012029;28;21218;-82
2022/12/31 07:36:48;;;;;;;24.27;14.73;;;;;;;7.26;92.13;96175.72;5012020;28;20481;-82
2022/12/31 07:39:21;;;;;;;21.00;14.20;;;;;;;7.41;90.93;96176.69;5012053;28;20445;-83
2022/12/31 07:41:59;;;;;;;21.63;13.63;;;;;;;7.54;90.39;96182.97;5011781;28;20747;-82
2022/12/31 07:44:45;;;;;;;32.90;21.83;;;;;;;7.62;90.14;96174.75;5071382;28;20482;-83
2022/12/31 07:47:21;;;;;;;28.83;18.57;;;;;;;7.70;89.51;96180.41;5074225;28;20486;-83
2022/12/31 07:49:48;;;;;;;27.90;20.10;;;;;;;7.74;88.92;96181.91;5073903;28;21002;-83
2022/12/31 07:52:16;;;;;;;25.13;18.20;;;;;;;7.87;89.44;96190.81;5073552;28;20490;-82
2022/12/31 07:54:43;;;;;;;29.00;18.47;;;;;;;7.95;88.49;96187.78;5073554;28;20504;-82
2022/12/31 07:57:11;;;;;;;35.07;21.90;;;;;;;7.98;88.49;96188.44;5073662;28;20452;-82
2022/12/31 07:59:55;;;;;;;35.93;24.03;;;;;;;8.07;88.26;96187.94;5074224;28;20448;-81
2022/12/31 08:02:39;;;;;;;43.47;29.27;;;;;;;8.14;87.71;96192.88;5038283;28;20505;-83
2022/12/31 08:05:15;;;;;;;37.93;26.70;;;;;;;8.15;87.58;96184.94;5073688;28;20448;-82
2022/12/31 08:07:48;;;;;;;40.60;28.77;;;;;;;8.20;87.68;96198.59;5075488;28;20462;-82
2022/12/31 08:10:25;;;;;;;37.03;26.40;;;;;;;8.12;87.75;96190.34;5073533;28;20494;-82
2022/12/31 08:13:00;;;;;;;34.90;26.00;;;;;;;8.24;87.47;96188.81;5073544;28;20483;-82
2022/12/31 08:37:26;;;;;;;43.03;25.73;;;;;;;8.74;87.22;96198.28;5075655;27;1349275;-80
2022/12/31 08:40:06;;;;;;;39.40;26.10;;;;;;;8.81;86.80;96194.38;5041742;28;20595;-80
2022/12/31 08:42:39;;;;;;;33.43;24.90;;;;;;;8.84;87.30;96181.09;5100449;28;20444;-80
2022/12/31 08:45:17;;;;;;;35.90;25.40;;;;;;;8.93;86.42;96188.41;5098543;28;20502;-80
2022/12/31 08:47:49;;;;;;;34.00;24.87;;;;;;;8.95;86.55;96191.78;5089733;28;20444;-80
2022/12/31 08:50:18;;;;;;;38.20;25.30;;;;;;;8.94;86.56;96184.88;5089721;28;20443;-80
2022/12/31 08:52:48;;;;;;;36.50;24.50;;;;;;;9.04;86.37;96179.97;5038359;28;20444;-80
2022/12/31 08:55:17;;;;;;;38.07;23.17;;;;;;;9.09;86.49;96189.25;5089807;28;20437;-80
2022/12/31 08:57:53;;;;;;;32.77;21.70;;;;;;;9.15;85.80;96183.63;5089578;28;20490;-80
2022/12/31 09:00:20;;;;;;;41.83;26.43;;;;;;;9.18;85.88;96182.59;5089823;28;20444;-80
2022/12/31 09:03:09;;;;;;;41.80;25.90;;;;;;;9.20;85.42;96175.50;5089473;28;20468;-80
2022/12/31 09:05:53;;;;;;;41.57;25.07;;;;;;;9.20;86.40;96178.13;5089783;28;20486;-80
2022/12/31 09:08:30;;;;;;;38.53;26.00;;;;;;;9.20;86.84;96183.38;5089740;28;20475;-81
2022/12/31 09:11:01;;;;;;;38.60;23.87;;;;;;;9.19;86.25;96174.66;5089851;28;20918;-80
2022/12/31 09:13:37;;;;;;;37.17;24.57;;;;;;;9.29;86.33;96175.81;5089358;28;20444;-80
2022/12/31 09:16:12;;;;;;;37.00;25.37;;;;;;;9.32;86.41;96178.25;5089397;28;20493;-81
2022/12/31 09:18:41;;;;;;;36.13;24.07;;;;;;;9.29;85.59;96185.47;5089333;28;20842;-80
2022/12/31 09:21:10;;;;;;;34.03;23.33;;;;;;;9.36;85.83;96180.69;5089259;28;20483;-81
2022/12/31 09:23:39;;;;;;;37.07;22.60;;;;;;;9.34;85.20;96175.56;5089173;28;20440;-80
2022/12/31 09:26:14;;;;;;;37.50;24.00;;;;;;;9.36;85.68;96164.97;5089407;28;20488;-80
2022/12/31 09:28:48;;;;;;;42.97;27.27;;;;;;;9.50;85.23;96167.59;5089198;28;20452;-80
2022/12/31 09:31:18;;;;;;;40.90;28.20;;;;;;;9.51;85.83;96161.44;5088971;28;20446;-80
2022/12/31 09:33:51;;;;;;;42.70;28.87;;;;;;;9.59;85.75;96167.91;5088894;28;20444;-80
2022/12/31 09:36:26;;;;;;;40.37;27.73;;;;;;;9.67;85.08;96158.72;5025225;28;20471;-81
2022/12/31 09:39:00;;;;;;;37.03;25.47;;;;;;;9.79;84.45;96157.97;5055253;28;20866;-80
2022/12/31 09:42:04;;;;;;;39.43;26.70;;;;;;;9.80;85.10;96147.38;5055150;28;20446;-80
2022/12/31 09:45:13;;;;;;;36.47;25.77;;;;;;;9.92;84.06;96151.91;5055133;28;21012;-81
2022/12/31 09:48:09;;;;;;;37.40;25.33;;;;;;;9.96;83.48;96149.06;4974475;28;20895;-80
2022/12/31 09:50:58;;;;;;;43.93;28.07;;;;;;;10.03;83.56;96134.63;4971321;28;20458;-81
2022/12/31 09:53:43;;;;;;;47.37;33.50;;;;;;;9.99;83.50;96133.16;4974302;28;20449;-80
2022/12/31 09:56:20;;;;;;;40.53;28.27;;;;;;;10.04;82.92;96128.47;4974078;28;20517;-80
2022/12/31 09:58:57;;;;;;;50.50;34.93;;;;;;;9.97;83.09;96127.16;4974283;28;20504;-80
2022/12/31 10:01:42;;;;;;;39.40;27.53;;;;;;;10.12;82.08;96118.31;4974177;28;20442;-80
2022/12/31 10:04:33;;;;;;;41.80;28.93;;;;;;;10.17;82.05;96113.66;4973860;28;20453;-80
2022/12/31 10:07:09;;;;;;;35.93;23.30;;;;;;;10.17;81.43;96116.28;4974133;28;20500;-81
2022/12/31 10:09:48;;;;;;;33.33;24.10;;;;;;;10.21;82.01;96116.00;4957463;28;20809;-81
2022/12/31 10:12:39;;;;;;;42.60;23.80;;;;;;;10.35;81.52;96115.09;4973973;28;20871;-81
2022/12/31 10:15:35;;;;;;;39.50;28.40;;;;;;;10.43;80.35;96106.75;4973822;28;20509;-81
2022/12/31 10:18:16;;;;;;;33.73;22.60;;;;;;;10.51;80.68;96107.94;4973668;28;20515;-80
2022/12/31 10:20:54;;;;;;;32.33;21.63;;;;;;;10.53;81.06;96105.22;4984227;28;20459;-81
2022/12/31 10:23:48;;;;;;;26.90;19.20;;;;;;;10.56;79.92;96102.38;5054688;28;20484;-81
2022/12/31 10:26:29;;;;;;;29.77;20.27;;;;;;;10.66;79.82;96100.00;4973359;28;20499;-81
2022/12/31 10:29:08;;;;;;;31.20;19.33;;;;;;;10.50;79.56;96102.78;4973527;28;20443;-80
2022/12/31 10:31:40;;;;;;;29.37;19.60;;;;;;;10.70;79.02;96098.88;4973462;28;20452;-81
2022/12/31 10:34:14;;;;;;;26.60;18.87;;;;;;;10.52;79.05;96091.25;4973394;28;20448;-81
2022/12/31 10:36:53;;;;;;;27.67;17.90;;;;;;;10.67;79.58;96088.53;4987012;28;20536;-81
2022/12/31 10:39:34;;;;;;;26.50;18.87;;;;;;;10.83;79.59;96086.59;4992763;28;20941;-81
2022/12/31 10:42:44;;;;;;;29.93;20.37;;;;;;;10.88;78.64;96081.03;4992813;28;20450;-81
2022/12/31 10:45:34;;;;;;;27.63;16.50;;;;;;;10.93;78.64;96079.78;4992883;28;20892;-81
2022/12/31 10:48:37;;;;;;;19.57;17.13;;;;;;;11.08;78.49;96072.66;4991987;28;20518;-81
2022/12/31 10:51:38;;;;;;;25.40;18.93;;;;;;;11.16;78.23;96065.94;4992550;28;20447;-81
2022/12/31 10:54:35;;;;;;;29.40;19.00;;;;;;;11.30;77.78;96067.63;4992538;28;20447;-81
2022/12/31 10:57:27;;;;;;;29.27;18.60;;;;;;;11.41;78.43;96066.88;4896597;29;20456;-81
2022/12/31 11:00:12;;;;;;;34.03;20.57;;;;;;;11.47;76.71;96069.91;4896495;29;20471;-80
2022/12/31 11:03:11;;;;;;;20.73;15.60;;;;;;;11.51;76.15;96067.91;4912936;28;20460;-81
2022/12/31 11:06:01;;;;;;;19.60;14.50;;;;;;;11.34;76.88;96068.25;4858970;29;20498;-81
2022/12/31 11:08:47;;;;;;;19.50;14.47;;;;;;;11.40;76.26;96068.66;4859201;29;20463;-81
2022/12/31 11:11:31;;;;;;;20.67;13.90;;;;;;;11.49;76.30;96073.28;4859386;29;20509;-81
2022/12/31 11:14:35;;;;;;;21.80;13.67;;;;;;;11.59;75.82;96067.41;4859222;29;20891;-81
2022/12/31 11:17:24;;;;;;;19.67;14.57;;;;;;;11.70;76.43;96065.69;4859274;29;20446;-81
2022/12/31 11:20:03;;;;;;;30.73;16.30;;;;;;;11.83;76.19;96064.84;4859202;29;20462;-81
2022/12/31 11:22:54;;;;;;;26.37;16.00;;;;;;;11.89;74.48;96060.00;4858930;29;20462;-81
2022/12/31 11:25:32;;;;;;;22.50;15.20;;;;;;;11.94;74.72;96057.88;4859191;29;20460;-81
2022/12/31 11:28:22;;;;;;;24.87;15.70;;;;;;;11.99;75.23;96053.13;4858906;29;20454;-81
2022/12/31 11:31:05;;;;;;;26.83;16.60;;;;;;;12.09;74.57;96051.50;4858871;29;20560;-81
2022/12/31 11:33:49;;;;;;;23.77;17.80;;;;;;;12.20;73.80;96055.19;4874615;28;20449;-81
2022/12/31 11:36:24;;;;;;;22.40;16.33;;;;;;;12.26;74.00;96052.94;4963402;28;20535;-81
2022/12/31 11:38:56;;;;;;;26.33;17.43;;;;;;;12.26;73.39;96057.34;4972277;28;20561;-81
2022/12/31 11:41:33;;;;;;;27.03;16.90;;;;;;;12.30;73.24;96046.50;4972117;28;20456;-81
2022/12/31 11:44:12;;;;;;;24.40;18.77;;;;;;;12.30;73.17;96038.59;5052021;28;20445;-81
2022/12/31 11:47:04;;;;;;;23.50;15.80;;;;;;;12.45;72.76;96041.91;5053203;28;20484;-81
2022/12/31 11:49:46;;;;;;;22.70;15.67;;;;;;;12.53;72.70;96046.59;5052986;28;20446;-81
2022/12/31 11:52:32;;;;;;;30.23;16.70;;;;;;;12.63;72.91;96043.16;5035386;28;20506;-81
2022/12/31 11:55:19;;;;;;;18.03;14.30;;;;;;;12.55;72.32;96036.78;5052812;28;20940;-81
2022/12/31 11:57:49;;;;;;;15.67;13.30;;;;;;;12.66;72.19;96032.38;5017916;28;20859;-81
2022/12/31 12:00:19;;;;;;;27.97;14.40;;;;;;;12.68;72.13;96041.00;5052588;28;20455;-81
2022/12/31 12:02:48;;;;;;;21.57;14.47;;;;;;;12.79;72.35;96034.97;5053043;28;20446;-81
2022/12/31 12:05:19;;;;;;;17.43;12.83;;;;;;;12.84;72.41;96038.09;5001550;28;20524;-81
2022/12/31 12:07:46;;;;;;;22.83;15.50;;;;;;;12.87;72.31;96043.13;5052665;28;20488;-82
2022/12/31 12:10:23;;;;;;;33.47;16.63;;;;;;;12.96;72.24;96047.69;5053000;28;20438;-81
2022/12/31 12:12:51;;;;;;;17.70;12.67;;;;;;;12.80;70.92;96048.97;5000972;28;20525;-82
2022/12/31 12:15:22;;;;;;;24.50;14.43;;;;;;;12.81;71.08;96048.84;5052422;28;20445;-81
2022/12/31 12:17:57;;;;;;;19.73;15.10;;;;;;;12.85;71.16;96049.47;5052771;28;20507;-82
2022/12/31 12:20:30;;;;;;;19.70;15.07;;;;;;;12.94;71.16;96052.22;5052477;28;20441;-82
2022/12/31 12:22:58;;;;;;;27.07;17.60;;;;;;;12.94;71.04;96041.69;5052823;28;20870;-81